Time;durP1;ratioP1;P1;durP2;ratioP2;P2;SDS_P1;SDS_P2;PMS_P1;PMS_P2;Temp;Humidity;BMP_temperature;BMP_pressure;BME280_temperature;BME280_humidity;BME280_pressure;Samples;Min_cycle;Max_cycle;Signal;HPM_P1;HPM_P2
2021/10/11 06:36:15;;;;;;;19.13;3.63;;;10.10;99.90;;;;;;5164797;27;20335;-83
2021/10/11 06:38:41;;;;;;;15.53;2.87;;;10.00;99.90;;;;;;5167802;27;20046;-74
2021/10/11 06:41:06;;;;;;;10.93;2.83;;;10.10;99.90;;;;;;5168864;27;20049;-73
2021/10/11 06:43:32;;;;;;;11.20;3.20;;;10.10;99.90;;;;;;5167940;27;20045;-73
2021/10/11 06:45:57;;;;;;;17.13;2.70;;;10.10;99.90;;;;;;5168538;27;20035;-73
2021/10/11 06:48:23;;;;;;;14.33;3.57;;;10.20;99.90;;;;;;5167223;27;20177;-73
2021/10/11 06:50:49;;;;;;;14.20;3.10;;;10.20;99.90;;;;;;5166665;27;20038;-81
2021/10/11 06:53:14;;;;;;;17.77;3.27;;;10.30;99.90;;;;;;5167654;27;20042;-80
2021/10/11 06:55:40;;;;;;;13.27;3.23;;;10.30;99.90;;;;;;5167003;27;20127;-80
2021/10/11 06:58:06;;;;;;;12.57;3.03;;;10.40;99.90;;;;;;5166866;27;20043;-81
2021/10/11 07:00:32;;;;;;;15.77;3.20;;;10.50;99.90;;;;;;5168455;27;20201;-77
2021/10/11 07:02:59;;;;;;;14.30;3.83;;;10.50;99.90;;;;;;5167190;27;20034;-79
2021/10/11 07:05:24;;;;;;;15.57;2.57;;;10.60;99.90;;;;;;5166507;27;20050;-74
2021/10/11 07:07:50;;;;;;;14.57;3.27;;;10.70;99.90;;;;;;5168058;27;20447;-75
2021/10/11 07:10:15;;;;;;;15.87;2.67;;;10.80;99.90;;;;;;5160235;27;20106;-75
2021/10/11 07:12:41;;;;;;;20.20;2.50;;;10.80;99.90;;;;;;5146801;27;20058;-77
2021/10/11 07:15:07;;;;;;;12.23;2.93;;;10.90;99.90;;;;;;5147495;27;20122;-77
2021/10/11 07:17:33;;;;;;;14.40;3.03;;;11.00;99.90;;;;;;5146351;27;20043;-78
2021/10/11 07:19:58;;;;;;;16.93;2.53;;;11.00;99.90;;;;;;5145028;27;20051;-77
2021/10/11 07:22:24;;;;;;;13.37;2.17;;;11.10;99.90;;;;;;5147215;27;20394;-79
2021/10/11 07:24:50;;;;;;;14.57;2.90;;;11.20;99.90;;;;;;5147177;27;20053;-85
2021/10/11 07:27:16;;;;;;;14.33;3.23;;;11.30;99.90;;;;;;5149048;27;20065;-83
2021/10/11 07:29:42;;;;;;;13.00;2.90;;;11.30;99.90;;;;;;5147039;27;20047;-81
2021/10/11 07:32:08;;;;;;;17.20;3.10;;;11.40;99.90;;;;;;5145666;27;20061;-79
2021/10/11 07:34:34;;;;;;;12.60;2.83;;;11.40;99.90;;;;;;5144840;27;20349;-77
2021/10/11 07:37:03;;;;;;;16.77;3.70;;;11.50;99.90;;;;;;5145179;27;20111;-79
2021/10/11 07:39:29;;;;;;;16.70;5.43;;;11.50;99.90;;;;;;5145213;27;20047;-78
2021/10/11 07:41:55;;;;;;;19.97;6.90;;;11.60;99.90;;;;;;5146674;27;20066;-80
2021/10/11 07:44:21;;;;;;;18.50;6.73;;;11.70;99.90;;;;;;5145810;27;20541;-78
2021/10/11 07:46:52;;;;;;;13.63;5.50;;;11.70;99.90;;;;;;5137669;27;20103;-83
2021/10/11 07:49:17;;;;;;;10.80;3.25;;;11.80;99.90;;;;;;5132343;27;20721;-78
2021/10/11 07:51:43;;;;;;;10.80;3.30;;;11.80;99.90;;;;;;5140471;27;20062;-87
2021/10/11 07:54:09;;;;;;;9.63;3.10;;;11.90;99.90;;;;;;5135131;27;20046;-84
2021/10/11 07:56:36;;;;;;;12.87;2.53;;;12.00;99.90;;;;;;5132280;27;20059;-77
2021/10/11 07:59:02;;;;;;;10.93;2.20;;;12.00;99.90;;;;;;5132603;27;20074;-80
2021/10/11 08:01:28;;;;;;;10.53;2.10;;;12.10;99.90;;;;;;5131650;27;20070;-79
2021/10/11 08:03:54;;;;;;;13.83;2.87;;;12.10;99.90;;;;;;5132155;27;20086;-78
2021/10/11 08:06:19;;;;;;;16.03;2.67;;;12.10;99.90;;;;;;5131317;27;20473;-81
2021/10/11 08:08:45;;;;;;;11.67;2.10;;;12.10;99.90;;;;;;5130202;27;20039;-80
2021/10/11 08:11:10;;;;;;;9.17;2.70;;;12.10;99.90;;;;;;5131381;27;20043;-79
2021/10/11 08:13:36;;;;;;;11.67;2.47;;;12.10;99.90;;;;;;5131040;27;20045;-78
2021/10/11 08:16:02;;;;;;;10.03;2.20;;;12.20;99.90;;;;;;5130373;27;20135;-82
2021/10/11 08:18:27;;;;;;;10.23;1.70;;;12.20;99.90;;;;;;5131674;27;20074;-85
2021/10/11 08:20:53;;;;;;;14.77;2.37;;;12.30;99.90;;;;;;5131639;27;20043;-86
2021/10/11 08:23:18;;;;;;;11.77;1.70;;;12.40;99.90;;;;;;5134011;27;20462;-84
2021/10/11 08:25:44;;;;;;;13.03;2.87;;;12.50;99.90;;;;;;5132926;27;20043;-83
2021/10/11 08:28:10;;;;;;;11.47;2.03;;;12.60;99.90;;;;;;5132700;27;20042;-84
2021/10/11 08:30:36;;;;;;;13.93;2.77;;;12.60;99.90;;;;;;5131599;27;20130;-80
2021/10/11 08:33:02;;;;;;;11.10;2.63;;;12.70;99.90;;;;;;5131214;27;20516;-81
2021/10/11 08:35:28;;;;;;;15.37;3.13;;;12.80;99.90;;;;;;5130684;27;20051;-80
2021/10/11 08:37:54;;;;;;;11.83;2.60;;;12.80;99.70;;;;;;5130747;27;20046;-81
2021/10/11 08:40:20;;;;;;;10.40;2.33;;;12.90;99.70;;;;;;5130959;27;20515;-80
2021/10/11 08:42:48;;;;;;;12.50;2.70;;;12.90;99.60;;;;;;5129755;27;20050;-80
2021/10/11 08:45:14;;;;;;;13.40;3.00;;;13.00;99.50;;;;;;5131312;27;20079;-82
2021/10/11 08:47:40;;;;;;;11.37;3.03;;;13.00;99.40;;;;;;5129981;27;20111;-84
2021/10/11 08:50:07;;;;;;;12.07;7.17;;;13.10;99.20;;;;;;5138479;27;20167;-82
2021/10/11 08:52:32;;;;;;;7.57;2.17;;;13.20;99.20;;;;;;5132006;27;20128;-83
2021/10/11 08:54:58;;;;;;;14.60;2.90;;;13.20;99.00;;;;;;5127104;27;20711;-83
2021/10/11 08:57:29;;;;;;;14.93;3.47;;;13.20;98.80;;;;;;5110866;28;20467;-83
2021/10/11 09:00:16;;;;;;;16.58;2.47;;;13.30;98.70;;;;;;5110722;28;20109;-82
2021/10/11 09:02:57;;;;;;;15.23;2.80;;;13.40;98.60;;;;;;5111540;28;20801;-82
2021/10/11 09:05:24;;;;;;;13.83;2.83;;;13.50;98.40;;;;;;5110591;28;20055;-81
2021/10/11 09:07:58;;;;;;;14.80;2.57;;;13.60;98.40;;;;;;5131637;27;20378;-87
2021/10/11 09:10:24;;;;;;;11.33;2.63;;;13.70;98.10;;;;;;5129271;27;20043;-85
2021/10/11 09:12:50;;;;;;;14.17;3.17;;;13.70;98.10;;;;;;5111883;28;20054;-84
2021/10/11 09:15:15;;;;;;;10.93;2.20;;;13.80;97.90;;;;;;5116083;28;20044;-81
2021/10/11 09:17:46;;;;;;;13.27;2.23;;;13.80;97.80;;;;;;5111462;28;20552;-81
2021/10/11 09:20:16;;;;;;;13.40;2.57;;;13.80;97.60;;;;;;5108991;28;20036;-81
2021/10/11 09:22:44;;;;;;;12.10;2.50;;;13.80;97.50;;;;;;5127780;27;20413;-74
2021/10/11 09:25:11;;;;;;;12.50;3.30;;;13.70;97.80;;;;;;5130977;27;20068;-77
2021/10/11 09:27:45;;;;;;;15.60;2.73;;;13.70;98.00;;;;;;5130392;27;20042;-82
2021/10/11 09:30:15;;;;;;;17.13;2.83;;;13.70;98.10;;;;;;5130525;27;20043;-87
2021/10/11 09:32:41;;;;;;;14.63;2.57;;;13.70;98.30;;;;;;5128863;27;20510;-79
2021/10/11 09:35:09;;;;;;;17.17;3.37;;;13.60;98.50;;;;;;5115628;27;20055;-78
2021/10/11 09:37:35;;;;;;;11.70;2.00;;;13.70;98.70;;;;;;5122912;27;20138;-75
2021/10/11 09:40:01;;;;;;;11.77;3.10;;;13.70;98.50;;;;;;5110976;27;20476;-72
2021/10/11 09:42:30;;;;;;;11.67;4.33;;;13.70;98.60;;;;;;5112776;28;20123;-75
2021/10/11 09:44:57;;;;;;;15.50;3.00;;;13.70;98.60;;;;;;5112735;28;20047;-65
2021/10/11 09:47:31;;;;;;;18.87;3.50;;;13.60;98.50;;;;;;5112362;27;20088;-77
2021/10/11 09:49:59;;;;;;;13.77;2.80;;;13.60;98.60;;;;;;5112861;28;20048;-74
2021/10/11 09:52:25;;;;;;;14.03;2.43;;;13.60;98.80;;;;;;5113056;27;20126;-76
2021/10/11 09:54:52;;;;;;;10.83;2.80;;;13.60;98.80;;;;;;5111955;28;20131;-76
2021/10/11 09:57:19;;;;;;;11.67;2.57;;;13.50;99.60;;;;;;5112906;28;20071;-75
2021/10/11 09:59:44;;;;;;;15.37;2.80;;;13.40;99.90;;;;;;5114234;28;20044;-87
2021/10/11 10:02:11;;;;;;;14.10;2.27;;;13.20;99.90;;;;;;5111342;28;20092;-85
2021/10/11 10:04:40;;;;;;;11.67;2.30;;;13.10;99.90;;;;;;5114854;28;20044;-88
2021/10/11 10:07:09;;;;;;;10.60;1.57;;;13.10;99.90;;;;;;5113809;28;20522;-78
2021/10/11 10:09:42;;;;;;;10.23;2.37;;;13.10;99.90;;;;;;5111623;28;20060;-84
2021/10/11 10:12:08;;;;;;;13.73;2.10;;;13.10;99.90;;;;;;5120678;27;20488;-82
2021/10/11 10:14:35;;;;;;;16.10;1.80;;;13.10;99.90;;;;;;5112697;28;20416;-82
2021/10/11 10:17:01;;;;;;;13.97;1.73;;;13.20;99.90;;;;;;5117677;28;20055;-81
2021/10/11 10:19:34;;;;;;;12.37;1.73;;;13.30;99.90;;;;;;5113429;27;20043;-80
2021/10/11 10:22:11;;;;;;;13.37;2.47;;;13.30;99.90;;;;;;5110946;28;20143;-79
2021/10/11 10:24:38;;;;;;;9.67;1.40;;;13.30;99.90;;;;;;5110988;28;20479;-78
2021/10/11 10:27:06;;;;;;;8.67;1.60;;;13.30;99.90;;;;;;5112692;28;20153;-76
2021/10/11 10:29:45;;;;;;;8.10;1.70;;;13.30;99.90;;;;;;5110622;28;20063;-76
2021/10/11 10:32:12;;;;;;;7.67;1.47;;;13.40;99.90;;;;;;5110647;28;20047;-76
2021/10/11 10:34:37;;;;;;;11.73;1.70;;;13.40;99.90;;;;;;5111934;28;20059;-78
2021/10/11 10:37:11;;;;;;;18.93;2.53;;;13.30;99.90;;;;;;5126969;28;20092;-76
2021/10/11 10:39:49;;;;;;;13.60;1.50;;;13.30;99.90;;;;;;5112465;28;20051;-77
2021/10/11 10:42:27;;;;;;;8.97;1.70;;;13.30;99.90;;;;;;5110797;28;20133;-74
2021/10/11 10:44:53;;;;;;;10.67;2.50;;;13.20;99.90;;;;;;5111182;28;20130;-76
2021/10/11 10:47:38;;;;;;;11.00;1.90;;;13.00;99.90;;;;;;5112857;28;20443;-77
2021/10/11 10:50:28;;;;;;;10.70;1.80;;;12.70;99.90;;;;;;5109596;28;20056;-77
2021/10/11 10:53:00;;;;;;;13.70;2.07;;;12.50;99.90;;;;;;5111660;28;20055;-77
2021/10/11 14:29:05;;;;;;;7.33;1.30;;;13.60;99.60;;;;;;5066929;28;20369;-71
2021/10/11 14:31:52;;;;;;;8.20;1.00;;;13.70;99.40;;;;;;5068474;28;20087;-71
2021/10/11 16:04:21;;;;;;;13.00;1.97;;;13.40;94.80;;;;;;5072093;28;20052;-75
2021/10/11 18:05:51;;;;;;;6.23;1.87;;;11.40;97.00;;;;;;5099870;27;20494;-74
2021/10/11 18:08:18;;;;;;;7.30;1.80;;;11.40;96.80;;;;;;5088341;28;20075;-80
2021/10/11 18:10:46;;;;;;;6.30;2.47;;;11.30;97.30;;;;;;5089386;28;20062;-74
2021/10/11 18:13:12;;;;;;;7.87;2.50;;;11.30;97.70;;;;;;5087422;28;20117;-73
2021/10/11 18:15:38;;;;;;;7.10;1.70;;;11.30;98.00;;;;;;5089710;28;20043;-75
2021/10/11 18:18:07;;;;;;;7.73;1.47;;;11.30;98.30;;;;;;5088583;28;20060;-73
2021/10/11 18:20:33;;;;;;;5.50;1.47;;;11.30;98.50;;;;;;5088822;28;20533;-74
2021/10/11 18:22:59;;;;;;;6.30;1.50;;;11.30;98.60;;;;;;5089446;28;20048;-74
2021/10/11 18:25:24;;;;;;;7.23;2.47;;;11.30;98.70;;;;;;5089712;28;20036;-80
2021/10/11 18:27:51;;;;;;;8.30;1.80;;;11.30;98.70;;;;;;5088581;28;20119;-74
2021/10/11 18:30:18;;;;;;;6.93;2.03;;;11.30;98.80;;;;;;5088569;28;20418;-80
2021/10/11 18:32:45;;;;;;;9.40;3.67;;;11.30;98.80;;;;;;5088996;28;20448;-73
2021/10/11 18:35:11;;;;;;;7.87;1.90;;;11.30;98.90;;;;;;5086980;28;20044;-73
2021/10/11 18:37:38;;;;;;;8.73;2.40;;;11.40;98.90;;;;;;5089546;28;20119;-77
2021/10/11 18:40:05;;;;;;;6.37;1.97;;;11.40;98.90;;;;;;5088995;28;20044;-76
2021/10/11 18:42:31;;;;;;;8.77;2.50;;;11.40;98.90;;;;;;5087005;28;20496;-75
2021/10/11 18:44:57;;;;;;;10.30;2.53;;;11.40;98.90;;;;;;5087240;28;20048;-73
2021/10/11 18:47:23;;;;;;;6.70;2.50;;;11.40;98.90;;;;;;5087856;28;20066;-75
2021/10/11 18:49:49;;;;;;;15.87;3.57;;;11.40;98.80;;;;;;5086302;28;20492;-73
2021/10/11 18:52:16;;;;;;;12.77;4.20;;;11.50;98.80;;;;;;5088857;28;20054;-72
2021/10/11 18:54:42;;;;;;;10.57;2.40;;;11.50;98.70;;;;;;5086595;28;20052;-77
2021/10/11 18:57:07;;;;;;;7.27;2.70;;;11.50;98.70;;;;;;5087714;28;20044;-75
2021/10/11 18:59:33;;;;;;;8.13;2.50;;;11.50;98.70;;;;;;5087731;28;20056;-85
